sensor_id;sensor_type;location;lat;lon;timestamp;P1;durP1;ratioP1;P2;durP2;ratioP2
23956;SDS011;12165;45.458;11.062;2022-07-29T00:00:05;4.72;;;2.55;;
23956;SDS011;12165;45.458;11.062;2022-07-29T00:02:34;6.30;;;2.92;;
23956;SDS011;12165;45.458;11.062;2022-07-29T00:05:01;3.50;;;2.75;;
23956;SDS011;12165;45.458;11.062;2022-07-29T00:07:29;6.20;;;2.22;;
23956;SDS011;12165;45.458;11.062;2022-07-29T00:09:56;3.83;;;2.50;;
23956;SDS011;12165;45.458;11.062;2022-07-29T00:12:24;6.03;;;2.60;;
23956;SDS011;12165;45.458;11.062;2022-07-29T00:14:55;4.60;;;2.65;;
23956;SDS011;12165;45.458;11.062;2022-07-29T00:17:25;8.55;;;2.72;;
23956;SDS011;12165;45.458;11.062;2022-07-29T00:19:52;4.32;;;2.53;;
23956;SDS011;12165;45.458;11.062;2022-07-29T00:22:19;7.70;;;2.60;;
23956;SDS011;12165;45.458;11.062;2022-07-29T00:24:47;3.40;;;2.60;;
23956;SDS011;12165;45.458;11.062;2022-07-29T00:27:16;3.47;;;2.75;;
23956;SDS011;12165;45.458;11.062;2022-07-29T00:29:44;5.75;;;2.55;;
23956;SDS011;12165;45.458;11.062;2022-07-29T00:32:11;6.75;;;2.92;;
23956;SDS011;12165;45.458;11.062;2022-07-29T00:34:38;3.65;;;2.60;;
23956;SDS011;12165;45.458;11.062;2022-07-29T00:37:24;3.83;;;2.38;;
23956;SDS011;12165;45.458;11.062;2022-07-29T00:39:51;4.63;;;2.70;;
23956;SDS011;12165;45.458;11.062;2022-07-29T00:42:18;4.60;;;2.78;;
23956;SDS011;12165;45.458;11.062;2022-07-29T00:44:46;5.07;;;2.80;;
23956;SDS011;12165;45.458;11.062;2022-07-29T00:47:13;4.43;;;2.90;;
23956;SDS011;12165;45.458;11.062;2022-07-29T00:49:40;4.30;;;2.72;;
23956;SDS011;12165;45.458;11.062;2022-07-29T00:52:09;5.68;;;2.72;;
23956;SDS011;12165;45.458;11.062;2022-07-29T00:54:37;3.90;;;2.70;;
23956;SDS011;12165;45.458;11.062;2022-07-29T00:57:10;4.38;;;3.17;;
23956;SDS011;12165;45.458;11.062;2022-07-29T00:59:38;4.55;;;2.67;;
23956;SDS011;12165;45.458;11.062;2022-07-29T01:02:05;4.95;;;3.10;;
23956;SDS011;12165;45.458;11.062;2022-07-29T01:04:33;4.32;;;3.08;;
23956;SDS011;12165;45.458;11.062;2022-07-29T01:07:00;5.03;;;3.30;;
23956;SDS011;12165;45.458;11.062;2022-07-29T01:09:28;4.85;;;3.20;;
23956;SDS011;12165;45.458;11.062;2022-07-29T01:12:16;6.57;;;3.40;;
23956;SDS011;12165;45.458;11.062;2022-07-29T01:14:45;5.03;;;2.92;;
23956;SDS011;12165;45.458;11.062;2022-07-29T01:17:15;5.90;;;3.05;;
23956;SDS011;12165;45.458;11.062;2022-07-29T01:19:58;6.35;;;3.78;;
23956;SDS011;12165;45.458;11.062;2022-07-29T01:22:48;4.30;;;3.60;;
23956;SDS011;12165;45.458;11.062;2022-07-29T01:28:41;4.22;;;3.42;;
23956;SDS011;12165;45.458;11.062;2022-07-29T01:31:13;4.63;;;3.60;;
23956;SDS011;12165;45.458;11.062;2022-07-29T01:33:58;8.13;;;3.53;;
23956;SDS011;12165;45.458;11.062;2022-07-29T01:39:20;6.50;;;3.20;;
23956;SDS011;12165;45.458;11.062;2022-07-29T01:42:01;8.50;;;3.67;;
23956;SDS011;12165;45.458;11.062;2022-07-29T01:45:16;4.68;;;3.60;;
23956;SDS011;12165;45.458;11.062;2022-07-29T01:50:20;5.93;;;3.08;;
23956;SDS011;12165;45.458;11.062;2022-07-29T01:52:59;8.27;;;3.40;;
23956;SDS011;12165;45.458;11.062;2022-07-29T01:55:31;6.10;;;3.35;;
23956;SDS011;12165;45.458;11.062;2022-07-29T01:58:01;5.97;;;3.53;;
23956;SDS011;12165;45.458;11.062;2022-07-29T02:00:31;5.75;;;3.40;;
23956;SDS011;12165;45.458;11.062;2022-07-29T02:03:04;4.25;;;3.20;;
23956;SDS011;12165;45.458;11.062;2022-07-29T02:05:34;3.28;;;2.70;;
23956;SDS011;12165;45.458;11.062;2022-07-29T02:08:04;3.92;;;2.70;;
23956;SDS011;12165;45.458;11.062;2022-07-29T02:10:33;3.97;;;2.70;;
23956;SDS011;12165;45.458;11.062;2022-07-29T02:13:01;3.85;;;2.70;;
23956;SDS011;12165;45.458;11.062;2022-07-29T02:15:30;3.35;;;2.58;;
23956;SDS011;12165;45.458;11.062;2022-07-29T02:18:20;3.05;;;2.75;;
23956;SDS011;12165;45.458;11.062;2022-07-29T02:20:49;3.33;;;2.47;;
23956;SDS011;12165;45.458;11.062;2022-07-29T02:23:20;3.50;;;2.40;;
23956;SDS011;12165;45.458;11.062;2022-07-29T02:25:50;4.50;;;2.60;;
23956;SDS011;12165;45.458;11.062;2022-07-29T02:28:20;2.67;;;2.38;;
23956;SDS011;12165;45.458;11.062;2022-07-29T02:30:59;3.97;;;2.92;;
23956;SDS011;12165;45.458;11.062;2022-07-29T02:33:28;4.28;;;2.90;;
23956;SDS011;12165;45.458;11.062;2022-07-29T02:35:57;4.35;;;2.72;;
23956;SDS011;12165;45.458;11.062;2022-07-29T02:38:25;3.75;;;2.75;;
23956;SDS011;12165;45.458;11.062;2022-07-29T02:41:14;3.35;;;2.40;;
23956;SDS011;12165;45.458;11.062;2022-07-29T02:43:47;4.90;;;2.97;;
23956;SDS011;12165;45.458;11.062;2022-07-29T02:46:17;3.92;;;2.72;;
23956;SDS011;12165;45.458;11.062;2022-07-29T02:48:59;5.68;;;3.38;;
23956;SDS011;12165;45.458;11.062;2022-07-29T02:51:32;4.68;;;3.65;;
23956;SDS011;12165;45.458;11.062;2022-07-29T02:54:10;4.00;;;3.15;;
23956;SDS011;12165;45.458;11.062;2022-07-29T02:56:43;5.18;;;3.17;;
23956;SDS011;12165;45.458;11.062;2022-07-29T02:59:12;6.38;;;3.28;;
23956;SDS011;12165;45.458;11.062;2022-07-29T03:01:41;3.78;;;3.08;;
23956;SDS011;12165;45.458;11.062;2022-07-29T03:04:11;3.85;;;2.88;;
23956;SDS011;12165;45.458;11.062;2022-07-29T03:06:41;5.10;;;3.13;;
23956;SDS011;12165;45.458;11.062;2022-07-29T03:09:10;4.20;;;2.80;;
23956;SDS011;12165;45.458;11.062;2022-07-29T03:11:40;4.20;;;2.80;;
23956;SDS011;12165;45.458;11.062;2022-07-29T03:14:16;2.75;;;2.28;;
23956;SDS011;12165;45.458;11.062;2022-07-29T03:16:46;6.38;;;2.78;;
23956;SDS011;12165;45.458;11.062;2022-07-29T03:19:14;3.08;;;2.50;;
23956;SDS011;12165;45.458;11.062;2022-07-29T03:21:41;5.63;;;3.17;;
23956;SDS011;12165;45.458;11.062;2022-07-29T03:24:08;4.93;;;3.30;;
23956;SDS011;12165;45.458;11.062;2022-07-29T03:26:36;5.32;;;2.53;;
23956;SDS011;12165;45.458;11.062;2022-07-29T03:29:03;4.82;;;2.58;;
23956;SDS011;12165;45.458;11.062;2022-07-29T03:31:31;4.47;;;2.25;;
23956;SDS011;12165;45.458;11.062;2022-07-29T03:33:58;4.53;;;2.40;;
23956;SDS011;12165;45.458;11.062;2022-07-29T03:36:26;2.75;;;2.40;;
23956;SDS011;12165;45.458;11.062;2022-07-29T03:38:52;4.10;;;2.17;;
23956;SDS011;12165;45.458;11.062;2022-07-29T03:41:20;5.75;;;2.75;;
23956;SDS011;12165;45.458;11.062;2022-07-29T03:43:50;4.03;;;2.70;;
23956;SDS011;12165;45.458;11.062;2022-07-29T03:46:20;3.72;;;2.70;;
23956;SDS011;12165;45.458;11.062;2022-07-29T03:48:50;5.82;;;2.67;;
23956;SDS011;12165;45.458;11.062;2022-07-29T03:51:22;6.88;;;2.75;;
23956;SDS011;12165;45.458;11.062;2022-07-29T03:53:58;6.38;;;2.70;;
23956;SDS011;12165;45.458;11.062;2022-07-29T03:56:36;4.25;;;2.65;;
23956;SDS011;12165;45.458;11.062;2022-07-29T03:59:06;3.67;;;2.42;;
23956;SDS011;12165;45.458;11.062;2022-07-29T04:01:34;3.58;;;2.72;;
23956;SDS011;12165;45.458;11.062;2022-07-29T04:04:02;9.95;;;3.50;;
23956;SDS011;12165;45.458;11.062;2022-07-29T04:06:37;5.95;;;2.83;;
23956;SDS011;12165;45.458;11.062;2022-07-29T04:09:08;8.57;;;2.92;;
23956;SDS011;12165;45.458;11.062;2022-07-29T04:11:36;6.95;;;3.05;;
23956;SDS011;12165;45.458;11.062;2022-07-29T04:14:25;4.88;;;2.80;;
23956;SDS011;12165;45.458;11.062;2022-07-29T04:16:52;9.52;;;2.88;;
23956;SDS011;12165;45.458;11.062;2022-07-29T04:19:19;5.43;;;3.25;;
23956;SDS011;12165;45.458;11.062;2022-07-29T04:21:46;5.55;;;2.88;;
23956;SDS011;12165;45.458;11.062;2022-07-29T04:24:13;10.95;;;3.17;;
23956;SDS011;12165;45.458;11.062;2022-07-29T04:26:42;7.13;;;3.20;;
23956;SDS011;12165;45.458;11.062;2022-07-29T04:29:09;6.93;;;2.97;;
23956;SDS011;12165;45.458;11.062;2022-07-29T04:31:38;6.20;;;3.45;;
23956;SDS011;12165;45.458;11.062;2022-07-29T04:34:05;5.78;;;3.95;;
23956;SDS011;12165;45.458;11.062;2022-07-29T04:36:32;12.80;;;4.03;;
23956;SDS011;12165;45.458;11.062;2022-07-29T04:38:59;7.43;;;3.47;;
23956;SDS011;12165;45.458;11.062;2022-07-29T04:41:27;7.22;;;3.92;;
23956;SDS011;12165;45.458;11.062;2022-07-29T04:43:58;10.68;;;3.75;;
23956;SDS011;12165;45.458;11.062;2022-07-29T04:46:27;7.18;;;3.50;;
23956;SDS011;12165;45.458;11.062;2022-07-29T04:48:54;8.82;;;3.60;;
23956;SDS011;12165;45.458;11.062;2022-07-29T04:51:21;4.63;;;3.22;;
23956;SDS011;12165;45.458;11.062;2022-07-29T04:53:48;5.78;;;3.45;;
23956;SDS011;12165;45.458;11.062;2022-07-29T04:56:15;6.38;;;3.65;;
23956;SDS011;12165;45.458;11.062;2022-07-29T04:58:42;4.88;;;3.90;;
23956;SDS011;12165;45.458;11.062;2022-07-29T05:01:09;9.65;;;3.80;;
23956;SDS011;12165;45.458;11.062;2022-07-29T05:03:36;6.80;;;4.05;;
23956;SDS011;12165;45.458;11.062;2022-07-29T05:06:03;7.50;;;4.20;;
23956;SDS011;12165;45.458;11.062;2022-07-29T05:08:30;5.90;;;4.35;;
23956;SDS011;12165;45.458;11.062;2022-07-29T05:10:57;7.97;;;4.35;;
23956;SDS011;12165;45.458;11.062;2022-07-29T05:13:37;9.20;;;3.92;;
23956;SDS011;12165;45.458;11.062;2022-07-29T05:16:11;8.38;;;4.40;;
23956;SDS011;12165;45.458;11.062;2022-07-29T05:18:39;6.68;;;4.00;;
23956;SDS011;12165;45.458;11.062;2022-07-29T05:21:06;7.70;;;4.10;;
23956;SDS011;12165;45.458;11.062;2022-07-29T05:23:33;9.95;;;4.18;;
23956;SDS011;12165;45.458;11.062;2022-07-29T05:26:00;5.25;;;3.72;;
23956;SDS011;12165;45.458;11.062;2022-07-29T05:28:27;6.95;;;3.78;;
23956;SDS011;12165;45.458;11.062;2022-07-29T05:30:54;6.72;;;3.85;;
23956;SDS011;12165;45.458;11.062;2022-07-29T05:33:22;6.32;;;3.70;;
23956;SDS011;12165;45.458;11.062;2022-07-29T05:36:02;7.38;;;4.13;;
23956;SDS011;12165;45.458;11.062;2022-07-29T05:38:33;8.77;;;3.90;;
23956;SDS011;12165;45.458;11.062;2022-07-29T05:41:01;5.95;;;3.55;;
23956;SDS011;12165;45.458;11.062;2022-07-29T05:43:29;6.28;;;3.60;;
23956;SDS011;12165;45.458;11.062;2022-07-29T05:45:56;6.35;;;3.88;;
23956;SDS011;12165;45.458;11.062;2022-07-29T05:48:23;7.57;;;4.03;;
23956;SDS011;12165;45.458;11.062;2022-07-29T05:50:51;6.03;;;3.95;;
23956;SDS011;12165;45.458;11.062;2022-07-29T05:53:18;10.85;;;3.58;;
23956;SDS011;12165;45.458;11.062;2022-07-29T05:55:47;6.38;;;3.00;;
23956;SDS011;12165;45.458;11.062;2022-07-29T05:58:15;5.45;;;3.10;;
23956;SDS011;12165;45.458;11.062;2022-07-29T06:00:42;5.35;;;3.47;;
23956;SDS011;12165;45.458;11.062;2022-07-29T06:03:09;6.18;;;3.50;;
23956;SDS011;12165;45.458;11.062;2022-07-29T06:05:36;8.18;;;3.20;;
23956;SDS011;12165;45.458;11.062;2022-07-29T06:08:03;7.60;;;3.25;;
23956;SDS011;12165;45.458;11.062;2022-07-29T06:10:36;5.63;;;3.47;;
23956;SDS011;12165;45.458;11.062;2022-07-29T06:13:04;6.05;;;3.08;;
23956;SDS011;12165;45.458;11.062;2022-07-29T06:15:31;6.28;;;2.97;;
23956;SDS011;12165;45.458;11.062;2022-07-29T06:17:58;4.32;;;2.92;;
23956;SDS011;12165;45.458;11.062;2022-07-29T06:20:28;13.75;;;3.33;;
23956;SDS011;12165;45.458;11.062;2022-07-29T06:22:57;7.13;;;3.33;;
23956;SDS011;12165;45.458;11.062;2022-07-29T06:25:24;6.57;;;3.60;;
23956;SDS011;12165;45.458;11.062;2022-07-29T06:27:51;5.20;;;3.42;;
23956;SDS011;12165;45.458;11.062;2022-07-29T06:30:18;5.22;;;3.30;;
23956;SDS011;12165;45.458;11.062;2022-07-29T06:32:45;8.60;;;4.30;;
23956;SDS011;12165;45.458;11.062;2022-07-29T06:35:13;5.35;;;3.47;;
23956;SDS011;12165;45.458;11.062;2022-07-29T06:38:00;7.00;;;3.20;;
23956;SDS011;12165;45.458;11.062;2022-07-29T06:40:34;5.95;;;3.22;;
23956;SDS011;12165;45.458;11.062;2022-07-29T06:43:20;6.93;;;3.40;;
23956;SDS011;12165;45.458;11.062;2022-07-29T06:45:48;5.97;;;3.50;;
23956;SDS011;12165;45.458;11.062;2022-07-29T06:48:15;9.00;;;3.63;;
23956;SDS011;12165;45.458;11.062;2022-07-29T06:50:41;7.28;;;2.80;;
23956;SDS011;12165;45.458;11.062;2022-07-29T06:53:08;7.45;;;3.35;;
23956;SDS011;12165;45.458;11.062;2022-07-29T06:55:35;3.95;;;2.95;;
23956;SDS011;12165;45.458;11.062;2022-07-29T06:58:03;5.00;;;3.28;;
23956;SDS011;12165;45.458;11.062;2022-07-29T07:00:30;6.03;;;3.00;;
23956;SDS011;12165;45.458;11.062;2022-07-29T07:02:57;3.75;;;2.90;;
23956;SDS011;12165;45.458;11.062;2022-07-29T07:05:24;5.03;;;2.97;;
23956;SDS011;12165;45.458;11.062;2022-07-29T07:07:51;4.85;;;2.95;;
23956;SDS011;12165;45.458;11.062;2022-07-29T07:10:18;4.65;;;2.80;;
23956;SDS011;12165;45.458;11.062;2022-07-29T07:12:45;7.03;;;2.78;;
23956;SDS011;12165;45.458;11.062;2022-07-29T07:15:12;5.18;;;3.10;;
23956;SDS011;12165;45.458;11.062;2022-07-29T07:17:39;4.82;;;3.03;;
23956;SDS011;12165;45.458;11.062;2022-07-29T07:20:06;4.63;;;2.90;;
23956;SDS011;12165;45.458;11.062;2022-07-29T07:22:34;7.47;;;3.30;;
23956;SDS011;12165;45.458;11.062;2022-07-29T07:25:04;4.95;;;2.85;;
23956;SDS011;12165;45.458;11.062;2022-07-29T07:27:31;5.88;;;2.80;;
23956;SDS011;12165;45.458;11.062;2022-07-29T07:29:58;8.55;;;3.17;;
23956;SDS011;12165;45.458;11.062;2022-07-29T07:32:25;3.90;;;2.95;;
23956;SDS011;12165;45.458;11.062;2022-07-29T07:34:53;4.97;;;2.80;;
23956;SDS011;12165;45.458;11.062;2022-07-29T07:37:20;7.20;;;3.28;;
23956;SDS011;12165;45.458;11.062;2022-07-29T07:39:47;6.95;;;3.15;;
23956;SDS011;12165;45.458;11.062;2022-07-29T07:42:14;7.32;;;4.10;;
23956;SDS011;12165;45.458;11.062;2022-07-29T07:44:41;7.10;;;4.22;;
23956;SDS011;12165;45.458;11.062;2022-07-29T07:47:28;6.85;;;3.50;;
23956;SDS011;12165;45.458;11.062;2022-07-29T07:49:55;3.78;;;3.25;;
23956;SDS011;12165;45.458;11.062;2022-07-29T07:52:22;7.95;;;4.22;;
23956;SDS011;12165;45.458;11.062;2022-07-29T07:54:49;11.70;;;5.63;;
23956;SDS011;12165;45.458;11.062;2022-07-29T07:57:16;8.73;;;5.28;;
23956;SDS011;12165;45.458;11.062;2022-07-29T07:59:43;8.70;;;4.85;;
23956;SDS011;12165;45.458;11.062;2022-07-29T08:02:10;7.55;;;4.32;;
23956;SDS011;12165;45.458;11.062;2022-07-29T08:04:37;7.38;;;4.65;;
23956;SDS011;12165;45.458;11.062;2022-07-29T08:07:06;14.25;;;4.82;;
23956;SDS011;12165;45.458;11.062;2022-07-29T08:09:35;9.55;;;4.80;;
23956;SDS011;12165;45.458;11.062;2022-07-29T08:12:02;8.00;;;4.10;;
23956;SDS011;12165;45.458;11.062;2022-07-29T08:14:30;9.00;;;5.05;;
23956;SDS011;12165;45.458;11.062;2022-07-29T08:16:57;8.32;;;4.53;;
23956;SDS011;12165;45.458;11.062;2022-07-29T08:19:25;10.40;;;6.35;;
23956;SDS011;12165;45.458;11.062;2022-07-29T08:21:52;8.00;;;5.38;;
23956;SDS011;12165;45.458;11.062;2022-07-29T08:24:20;6.47;;;5.03;;
23956;SDS011;12165;45.458;11.062;2022-07-29T08:27:06;7.80;;;5.20;;
23956;SDS011;12165;45.458;11.062;2022-07-29T08:29:53;7.00;;;4.68;;
23956;SDS011;12165;45.458;11.062;2022-07-29T08:32:22;7.05;;;4.53;;
23956;SDS011;12165;45.458;11.062;2022-07-29T08:35:09;11.73;;;5.13;;
23956;SDS011;12165;45.458;11.062;2022-07-29T08:37:36;10.10;;;4.70;;
23956;SDS011;12165;45.458;11.062;2022-07-29T08:40:03;9.18;;;5.50;;
23956;SDS011;12165;45.458;11.062;2022-07-29T08:42:32;8.80;;;6.10;;
23956;SDS011;12165;45.458;11.062;2022-07-29T08:44:59;8.10;;;5.22;;
23956;SDS011;12165;45.458;11.062;2022-07-29T08:47:26;11.93;;;4.95;;
23956;SDS011;12165;45.458;11.062;2022-07-29T08:49:54;9.23;;;4.80;;
23956;SDS011;12165;45.458;11.062;2022-07-29T08:52:21;7.50;;;5.55;;
23956;SDS011;12165;45.458;11.062;2022-07-29T08:54:56;7.72;;;5.10;;
23956;SDS011;12165;45.458;11.062;2022-07-29T08:57:23;6.72;;;4.20;;
23956;SDS011;12165;45.458;11.062;2022-07-29T08:59:52;5.15;;;3.78;;
23956;SDS011;12165;45.458;11.062;2022-07-29T09:02:21;6.78;;;3.95;;
23956;SDS011;12165;45.458;11.062;2022-07-29T09:04:49;6.57;;;4.53;;
23956;SDS011;12165;45.458;11.062;2022-07-29T09:07:17;5.07;;;3.42;;
23956;SDS011;12165;45.458;11.062;2022-07-29T09:09:44;6.60;;;3.67;;
23956;SDS011;12165;45.458;11.062;2022-07-29T09:12:11;6.93;;;3.28;;
23956;SDS011;12165;45.458;11.062;2022-07-29T09:14:54;5.25;;;3.60;;
23956;SDS011;12165;45.458;11.062;2022-07-29T09:20:12;7.80;;;3.65;;
23956;SDS011;12165;45.458;11.062;2022-07-29T09:22:40;7.63;;;3.97;;
23956;SDS011;12165;45.458;11.062;2022-07-29T09:25:08;6.90;;;3.70;;
23956;SDS011;12165;45.458;11.062;2022-07-29T09:27:37;6.35;;;3.90;;
23956;SDS011;12165;45.458;11.062;2022-07-29T09:30:06;7.50;;;4.75;;
23956;SDS011;12165;45.458;11.062;2022-07-29T09:32:54;6.55;;;4.13;;
23956;SDS011;12165;45.458;11.062;2022-07-29T09:35:23;7.40;;;3.80;;
23956;SDS011;12165;45.458;11.062;2022-07-29T09:37:52;5.63;;;4.15;;
23956;SDS011;12165;45.458;11.062;2022-07-29T09:40:20;9.48;;;4.93;;
23956;SDS011;12165;45.458;11.062;2022-07-29T09:42:49;8.30;;;4.05;;
23956;SDS011;12165;45.458;11.062;2022-07-29T09:45:30;5.88;;;3.95;;
23956;SDS011;12165;45.458;11.062;2022-07-29T09:48:13;6.72;;;3.97;;
23956;SDS011;12165;45.458;11.062;2022-07-29T09:50:42;6.13;;;3.55;;
23956;SDS011;12165;45.458;11.062;2022-07-29T09:53:10;7.53;;;3.97;;
23956;SDS011;12165;45.458;11.062;2022-07-29T09:55:50;8.82;;;3.78;;
23956;SDS011;12165;45.458;11.062;2022-07-29T09:58:18;5.35;;;3.63;;
23956;SDS011;12165;45.458;11.062;2022-07-29T10:00:47;5.80;;;3.88;;
23956;SDS011;12165;45.458;11.062;2022-07-29T10:03:16;7.07;;;3.92;;
23956;SDS011;12165;45.458;11.062;2022-07-29T10:05:44;7.63;;;3.55;;
23956;SDS011;12165;45.458;11.062;2022-07-29T10:08:12;6.10;;;4.25;;
23956;SDS011;12165;45.458;11.062;2022-07-29T10:10:41;5.07;;;3.63;;
23956;SDS011;12165;45.458;11.062;2022-07-29T10:13:11;5.18;;;3.40;;
23956;SDS011;12165;45.458;11.062;2022-07-29T10:15:42;6.25;;;4.10;;
23956;SDS011;12165;45.458;11.062;2022-07-29T10:18:12;5.45;;;3.53;;
23956;SDS011;12165;45.458;11.062;2022-07-29T10:20:41;10.52;;;4.13;;
23956;SDS011;12165;45.458;11.062;2022-07-29T10:23:09;8.20;;;4.05;;
23956;SDS011;12165;45.458;11.062;2022-07-29T10:25:36;5.78;;;3.60;;
23956;SDS011;12165;45.458;11.062;2022-07-29T10:28:04;5.00;;;3.67;;
23956;SDS011;12165;45.458;11.062;2022-07-29T10:30:32;6.22;;;3.83;;
23956;SDS011;12165;45.458;11.062;2022-07-29T10:44:27;5.38;;;3.80;;
23956;SDS011;12165;45.458;11.062;2022-07-29T10:46:55;6.97;;;4.47;;
23956;SDS011;12165;45.458;11.062;2022-07-29T10:49:24;6.57;;;3.80;;
23956;SDS011;12165;45.458;11.062;2022-07-29T10:52:03;7.70;;;3.53;;
23956;SDS011;12165;45.458;11.062;2022-07-29T11:02:43;5.75;;;3.50;;
23956;SDS011;12165;45.458;11.062;2022-07-29T11:05:15;6.03;;;4.15;;
23956;SDS011;12165;45.458;11.062;2022-07-29T11:13:48;7.28;;;4.60;;
23956;SDS011;12165;45.458;11.062;2022-07-29T11:16:18;6.65;;;3.80;;
23956;SDS011;12165;45.458;11.062;2022-07-29T11:21:41;6.50;;;3.88;;
23956;SDS011;12165;45.458;11.062;2022-07-29T11:24:26;5.28;;;3.72;;
23956;SDS011;12165;45.458;11.062;2022-07-29T11:32:13;6.00;;;4.13;;
23956;SDS011;12165;45.458;11.062;2022-07-29T11:34:48;7.70;;;4.45;;
23956;SDS011;12165;45.458;11.062;2022-07-29T11:37:17;6.32;;;4.32;;
23956;SDS011;12165;45.458;11.062;2022-07-29T11:45:06;5.82;;;3.97;;
23956;SDS011;12165;45.458;11.062;2022-07-29T11:48:03;7.38;;;3.85;;
23956;SDS011;12165;45.458;11.062;2022-07-29T11:50:51;8.65;;;4.03;;
23956;SDS011;12165;45.458;11.062;2022-07-29T11:53:19;6.88;;;4.43;;
23956;SDS011;12165;45.458;11.062;2022-07-29T11:55:47;8.82;;;4.13;;
23956;SDS011;12165;45.458;11.062;2022-07-29T11:58:23;7.07;;;4.30;;
23956;SDS011;12165;45.458;11.062;2022-07-29T12:00:51;6.22;;;4.05;;
23956;SDS011;12165;45.458;11.062;2022-07-29T12:03:25;4.95;;;3.97;;
23956;SDS011;12165;45.458;11.062;2022-07-29T12:06:00;8.68;;;4.00;;
23956;SDS011;12165;45.458;11.062;2022-07-29T12:08:27;5.60;;;3.88;;
23956;SDS011;12165;45.458;11.062;2022-07-29T12:10:55;6.55;;;4.22;;
23956;SDS011;12165;45.458;11.062;2022-07-29T12:13:22;9.30;;;4.07;;
23956;SDS011;12165;45.458;11.062;2022-07-29T12:16:03;7.30;;;3.85;;
23956;SDS011;12165;45.458;11.062;2022-07-29T12:18:30;7.15;;;4.32;;
23956;SDS011;12165;45.458;11.062;2022-07-29T12:20:58;8.35;;;4.15;;
23956;SDS011;12165;45.458;11.062;2022-07-29T12:23:30;6.25;;;3.70;;
23956;SDS011;12165;45.458;11.062;2022-07-29T12:25:59;8.88;;;3.70;;
23956;SDS011;12165;45.458;11.062;2022-07-29T12:28:29;6.68;;;4.13;;
23956;SDS011;12165;45.458;11.062;2022-07-29T12:30:57;10.68;;;3.90;;
23956;SDS011;12165;45.458;11.062;2022-07-29T12:33:25;4.72;;;3.85;;
23956;SDS011;12165;45.458;11.062;2022-07-29T12:35:54;5.20;;;3.70;;
23956;SDS011;12165;45.458;11.062;2022-07-29T12:38:33;10.00;;;4.55;;
23956;SDS011;12165;45.458;11.062;2022-07-29T12:41:01;6.38;;;4.05;;
23956;SDS011;12165;45.458;11.062;2022-07-29T12:43:30;5.95;;;3.80;;
23956;SDS011;12165;45.458;11.062;2022-07-29T12:45:57;6.03;;;3.90;;
23956;SDS011;12165;45.458;11.062;2022-07-29T12:48:38;5.68;;;4.03;;
23956;SDS011;12165;45.458;11.062;2022-07-29T12:51:07;7.38;;;4.10;;
23956;SDS011;12165;45.458;11.062;2022-07-29T12:53:35;6.13;;;4.22;;
23956;SDS011;12165;45.458;11.062;2022-07-29T12:56:03;6.45;;;4.30;;
23956;SDS011;12165;45.458;11.062;2022-07-29T12:58:46;8.90;;;4.28;;
23956;SDS011;12165;45.458;11.062;2022-07-29T13:01:17;6.85;;;3.72;;
23956;SDS011;12165;45.458;11.062;2022-07-29T13:09:20;9.30;;;4.07;;
23956;SDS011;12165;45.458;11.062;2022-07-29T13:11:50;7.32;;;3.63;;
23956;SDS011;12165;45.458;11.062;2022-07-29T13:14:30;7.10;;;4.07;;
23956;SDS011;12165;45.458;11.062;2022-07-29T13:17:14;7.65;;;3.70;;
23956;SDS011;12165;45.458;11.062;2022-07-29T13:19:52;5.57;;;4.07;;
23956;SDS011;12165;45.458;11.062;2022-07-29T13:22:34;5.57;;;4.28;;
23956;SDS011;12165;45.458;11.062;2022-07-29T13:25:02;6.95;;;3.85;;
23956;SDS011;12165;45.458;11.062;2022-07-29T13:27:30;4.25;;;3.83;;
23956;SDS011;12165;45.458;11.062;2022-07-29T13:29:59;6.68;;;3.80;;
23956;SDS011;12165;45.458;11.062;2022-07-29T13:32:28;5.82;;;3.67;;
23956;SDS011;12165;45.458;11.062;2022-07-29T13:34:56;4.20;;;3.80;;
23956;SDS011;12165;45.458;11.062;2022-07-29T13:37:31;5.88;;;4.15;;
23956;SDS011;12165;45.458;11.062;2022-07-29T13:40:01;7.38;;;3.50;;
23956;SDS011;12165;45.458;11.062;2022-07-29T13:42:30;10.07;;;3.83;;
23956;SDS011;12165;45.458;11.062;2022-07-29T13:44:58;5.53;;;4.10;;
23956;SDS011;12165;45.458;11.062;2022-07-29T13:47:26;5.72;;;3.72;;
23956;SDS011;12165;45.458;11.062;2022-07-29T13:49:59;9.48;;;4.05;;
23956;SDS011;12165;45.458;11.062;2022-07-29T13:52:27;8.38;;;4.10;;
23956;SDS011;12165;45.458;11.062;2022-07-29T13:54:54;4.95;;;4.13;;
23956;SDS011;12165;45.458;11.062;2022-07-29T13:57:21;4.50;;;3.63;;
23956;SDS011;12165;45.458;11.062;2022-07-29T13:59:48;6.20;;;4.00;;
23956;SDS011;12165;45.458;11.062;2022-07-29T14:02:20;5.10;;;3.67;;
23956;SDS011;12165;45.458;11.062;2022-07-29T14:04:52;6.10;;;4.10;;
23956;SDS011;12165;45.458;11.062;2022-07-29T14:07:20;7.60;;;4.28;;
23956;SDS011;12165;45.458;11.062;2022-07-29T14:09:47;6.97;;;4.05;;
23956;SDS011;12165;45.458;11.062;2022-07-29T14:12:14;4.47;;;4.07;;
23956;SDS011;12165;45.458;11.062;2022-07-29T14:14:41;7.82;;;3.92;;
23956;SDS011;12165;45.458;11.062;2022-07-29T14:17:08;5.05;;;3.80;;
23956;SDS011;12165;45.458;11.062;2022-07-29T14:19:35;6.32;;;4.20;;
23956;SDS011;12165;45.458;11.062;2022-07-29T14:22:04;5.22;;;4.30;;
23956;SDS011;12165;45.458;11.062;2022-07-29T14:24:34;5.30;;;4.07;;
23956;SDS011;12165;45.458;11.062;2022-07-29T14:27:03;4.03;;;3.63;;
23956;SDS011;12165;45.458;11.062;2022-07-29T14:29:31;5.35;;;3.90;;
23956;SDS011;12165;45.458;11.062;2022-07-29T14:32:06;5.53;;;3.55;;
23956;SDS011;12165;45.458;11.062;2022-07-29T14:34:34;7.93;;;4.05;;
23956;SDS011;12165;45.458;11.062;2022-07-29T14:37:03;8.10;;;4.30;;
23956;SDS011;12165;45.458;11.062;2022-07-29T14:39:32;11.70;;;4.72;;
23956;SDS011;12165;45.458;11.062;2022-07-29T14:42:07;5.53;;;3.65;;
23956;SDS011;12165;45.458;11.062;2022-07-29T14:44:36;7.50;;;4.40;;
23956;SDS011;12165;45.458;11.062;2022-07-29T14:47:03;8.40;;;4.00;;
23956;SDS011;12165;45.458;11.062;2022-07-29T14:49:33;5.50;;;4.05;;
23956;SDS011;12165;45.458;11.062;2022-07-29T14:52:01;6.35;;;4.03;;
23956;SDS011;12165;45.458;11.062;2022-07-29T14:54:29;5.63;;;4.13;;
23956;SDS011;12165;45.458;11.062;2022-07-29T14:56:56;5.65;;;3.80;;
23956;SDS011;12165;45.458;11.062;2022-07-29T14:59:24;5.80;;;4.20;;
23956;SDS011;12165;45.458;11.062;2022-07-29T15:01:51;7.50;;;3.92;;
23956;SDS011;12165;45.458;11.062;2022-07-29T15:04:19;10.82;;;4.10;;
23956;SDS011;12165;45.458;11.062;2022-07-29T15:06:46;6.40;;;3.80;;
23956;SDS011;12165;45.458;11.062;2022-07-29T15:09:13;6.63;;;4.10;;
23956;SDS011;12165;45.458;11.062;2022-07-29T15:11:40;10.88;;;4.28;;
23956;SDS011;12165;45.458;11.062;2022-07-29T15:14:07;6.07;;;4.22;;
23956;SDS011;12165;45.458;11.062;2022-07-29T15:16:35;7.20;;;3.72;;
23956;SDS011;12165;45.458;11.062;2022-07-29T15:19:03;5.43;;;4.25;;
23956;SDS011;12165;45.458;11.062;2022-07-29T15:21:31;7.15;;;4.20;;
23956;SDS011;12165;45.458;11.062;2022-07-29T15:23:58;8.90;;;4.50;;
23956;SDS011;12165;45.458;11.062;2022-07-29T15:26:25;9.38;;;4.30;;
23956;SDS011;12165;45.458;11.062;2022-07-29T15:28:52;8.07;;;3.90;;
23956;SDS011;12165;45.458;11.062;2022-07-29T15:31:19;9.95;;;3.65;;
23956;SDS011;12165;45.458;11.062;2022-07-29T15:33:46;8.27;;;4.10;;
23956;SDS011;12165;45.458;11.062;2022-07-29T15:36:13;6.22;;;3.53;;
23956;SDS011;12165;45.458;11.062;2022-07-29T15:39:01;8.27;;;4.25;;
23956;SDS011;12165;45.458;11.062;2022-07-29T15:41:28;11.77;;;4.60;;
23956;SDS011;12165;45.458;11.062;2022-07-29T15:43:55;6.43;;;4.18;;
23956;SDS011;12165;45.458;11.062;2022-07-29T15:46:21;8.00;;;4.07;;